Time;durP1;ratioP1;P1;durP2;ratioP2;P2;SDS_P1;SDS_P2;PMS_P1;PMS_P2;Temp;Humidity;BMP_temperature;BMP_pressure;BME280_temperature;BME280_humidity;BME280_pressure;Samples;Min_cycle;Max_cycle;Signal;HPM_P1;HPM_P2
2023/03/26 00:00:16;;;;;;;4.17;3.03;;;;;;;8.05;89.20;99689.88;5052844;28;20210;-82
2023/03/26 00:02:43;;;;;;;5.13;3.47;;;;;;;8.05;89.40;99687.22;5055163;28;20599;-82
2023/03/26 00:05:13;;;;;;;5.37;3.20;;;;;;;8.03;89.74;99695.28;5058580;28;20234;-82
2023/03/26 00:07:40;;;;;;;6.43;3.83;;;;;;;8.01;89.58;99697.16;5055209;28;21038;-82
2023/03/26 00:10:07;;;;;;;5.73;4.23;;;;;;;8.02;89.63;99688.25;5044385;28;20296;-82
2023/03/26 00:12:33;;;;;;;4.83;3.43;;;;;;;8.01;90.21;99690.06;5049000;28;20222;-82
2023/03/26 00:15:00;;;;;;;4.53;3.33;;;;;;;8.01;90.35;99691.88;5054986;28;20208;-82
2023/03/26 00:17:27;;;;;;;6.00;3.20;;;;;;;8.02;89.94;99698.88;5052567;28;20202;-82
2023/03/26 00:19:55;;;;;;;6.70;3.57;;;;;;;8.02;90.63;99707.69;5054995;28;20213;-82
2023/03/26 00:22:22;;;;;;;6.77;3.80;;;;;;;8.00;90.86;99706.94;5054918;28;20489;-82
2023/03/26 00:24:50;;;;;;;10.10;3.93;;;;;;;7.99;91.55;99702.56;5054491;28;20697;-82
2023/03/26 00:27:16;;;;;;;9.00;3.43;;;;;;;7.99;91.28;99705.22;5050794;28;20288;-82
2023/03/26 00:29:43;;;;;;;5.67;3.83;;;;;;;8.00;91.04;99708.72;5052561;28;21494;-82
2023/03/26 00:32:10;;;;;;;6.47;3.90;;;;;;;8.00;91.74;99706.06;5043952;28;20226;-82
2023/03/26 00:34:40;;;;;;;7.73;3.87;;;;;;;7.99;91.57;99707.03;5046453;28;20613;-82
2023/03/26 00:37:07;;;;;;;6.57;4.30;;;;;;;7.99;92.09;99714.97;5044798;28;20662;-82
2023/03/26 00:39:36;;;;;;;6.13;3.83;;;;;;;7.98;91.75;99706.19;5053959;28;20217;-83
2023/03/26 00:42:05;;;;;;;7.90;3.30;;;;;;;7.96;91.74;99704.59;5055958;28;20233;-83
2023/03/26 00:44:32;;;;;;;6.00;2.87;;;;;;;7.96;92.05;99710.72;5060675;28;20205;-82
2023/03/26 00:46:59;;;;;;;6.07;3.03;;;;;;;7.94;91.69;99709.97;5060817;28;20233;-82
2023/03/26 00:49:26;;;;;;;3.80;3.00;;;;;;;7.94;92.62;99715.28;5057492;28;20209;-82
2023/03/26 00:51:54;;;;;;;6.87;3.23;;;;;;;7.92;92.14;99714.53;5056404;28;20251;-82
2023/03/26 00:54:20;;;;;;;6.83;3.13;;;;;;;7.93;91.88;99718.88;5055551;28;20210;-82
2023/03/26 00:56:47;;;;;;;8.50;3.37;;;;;;;7.93;91.70;99710.94;5060878;28;20201;-82
2023/03/26 00:59:13;;;;;;;5.17;3.10;;;;;;;7.94;92.30;99720.59;5061568;28;20363;-82
2023/03/26 01:01:40;;;;;;;5.23;2.97;;;;;;;7.94;91.96;99722.38;5065276;28;20231;-82
2023/03/26 01:04:26;;;;;;;6.97;3.03;;;;;;;7.94;92.06;99722.38;5061502;28;20201;-82
2023/03/26 01:06:55;;;;;;;5.93;3.10;;;;;;;7.93;92.01;99729.50;5060815;28;20233;-82
2023/03/26 01:09:31;;;;;;;5.07;2.90;;;;;;;7.95;92.13;99730.25;5060692;28;20257;-82
2023/03/26 01:11:59;;;;;;;5.93;2.97;;;;;;;7.96;92.00;99737.25;5060364;28;20231;-82
2023/03/26 01:14:27;;;;;;;4.60;2.93;;;;;;;7.96;92.08;99731.94;5061521;28;20205;-82
2023/03/26 01:16:56;;;;;;;6.03;3.07;;;;;;;7.98;92.71;99731.84;5060472;28;20197;-82
2023/03/26 01:19:29;;;;;;;7.40;2.93;;;;;;;7.97;91.99;99741.59;5057976;28;20213;-82
2023/03/26 01:21:57;;;;;;;6.67;3.23;;;;;;;7.97;91.96;99740.75;5056550;28;20229;-82
2023/03/26 01:24:26;;;;;;;4.63;3.00;;;;;;;7.98;92.13;99737.16;5056283;28;20212;-82
2023/03/26 01:27:09;;;;;;;3.50;2.50;;;;;;;7.99;91.46;99738.84;5050248;28;20226;-82
2023/03/26 01:29:42;;;;;;;7.47;2.67;;;;;;;7.97;91.00;99743.41;5053270;28;20217;-82
2023/03/26 01:32:22;;;;;;;3.80;2.60;;;;;;;7.97;90.99;99736.31;5050283;28;20225;-83
2023/03/26 01:35:00;;;;;;;4.27;2.57;;;;;;;7.95;90.96;99743.50;5054648;28;20205;-82
2023/03/26 01:37:36;;;;;;;5.17;2.40;;;;;;;7.94;90.60;99740.94;5056475;28;20212;-83
2023/03/26 01:40:09;;;;;;;3.13;2.10;;;;;;;7.93;89.97;99739.25;5051238;28;20215;-83
2023/03/26 01:42:42;;;;;;;5.37;2.30;;;;;;;7.91;90.54;99744.66;5048322;28;20307;-82
2023/03/26 01:45:13;;;;;;;5.03;2.00;;;;;;;7.91;89.33;99738.50;5048664;28;20213;-82
2023/03/26 01:47:42;;;;;;;3.13;1.80;;;;;;;7.90;89.72;99742.09;5052150;28;20201;-83
2023/03/26 01:50:09;;;;;;;3.30;2.30;;;;;;;7.88;89.54;99723.63;5051827;28;20209;-83
2023/03/26 01:52:36;;;;;;;5.33;1.90;;;;;;;7.88;89.58;99736.06;5046779;28;20224;-83
2023/03/26 01:55:07;;;;;;;4.03;1.50;;;;;;;7.87;89.35;99734.38;5049467;28;20202;-81
2023/03/26 01:57:41;;;;;;;3.33;1.63;;;;;;;7.83;88.87;99731.06;5050257;28;20788;-82
2023/03/26 02:00:19;;;;;;;2.13;1.50;;;;;;;7.80;88.59;99720.66;5044924;28;20208;-83
2023/03/26 02:02:59;;;;;;;3.53;1.70;;;;;;;7.80;88.88;99725.13;5047014;28;20232;-82
2023/03/26 02:05:29;;;;;;;7.03;2.40;;;;;;;7.76;88.24;99727.13;5047590;28;20213;-82
2023/03/26 02:08:08;;;;;;;5.60;2.13;;;;;;;7.76;88.05;99723.63;5047236;28;20705;-82
2023/03/26 02:10:40;;;;;;;3.50;1.63;;;;;;;7.72;88.42;99719.47;5048020;28;20216;-82
2023/03/26 02:13:07;;;;;;;5.27;1.80;;;;;;;7.70;87.99;99724.03;5052072;28;20202;-81
2023/03/26 02:15:34;;;;;;;1.83;1.47;;;;;;;7.65;87.27;99722.53;5053188;28;20198;-81
2023/03/26 02:18:00;;;;;;;3.57;1.20;;;;;;;7.61;87.44;99721.03;5049968;28;20678;-82
2023/03/26 02:20:28;;;;;;;3.93;1.30;;;;;;;7.60;87.39;99719.34;5052249;28;20251;-81
2023/03/26 02:22:55;;;;;;;5.20;1.33;;;;;;;7.58;86.76;99709.78;5051690;28;20725;-81
2023/03/26 02:25:23;;;;;;;2.43;1.70;;;;;;;7.57;86.74;99721.34;5052907;28;20225;-81
2023/03/26 02:27:52;;;;;;;5.53;2.20;;;;;;;7.55;86.86;99715.28;5052865;28;20570;-82
2023/03/26 02:30:24;;;;;;;5.13;2.17;;;;;;;7.54;87.16;99714.44;5048138;28;20205;-81
2023/03/26 02:32:52;;;;;;;5.10;2.93;;;;;;;7.53;87.78;99712.72;5051746;28;20320;-81
2023/03/26 02:35:20;;;;;;;7.17;2.37;;;;;;;7.52;87.40;99713.72;5051714;28;20252;-81
2023/03/26 02:37:49;;;;;;;5.50;2.83;;;;;;;7.53;87.68;99720.69;5042302;28;20233;-82
2023/03/26 02:40:17;;;;;;;6.57;3.40;;;;;;;7.52;87.21;99711.06;5048847;28;20213;-82
2023/03/26 02:42:43;;;;;;;5.03;2.40;;;;;;;7.54;87.24;99716.22;5044995;28;20230;-82
2023/03/26 02:45:11;;;;;;;7.03;2.70;;;;;;;7.52;87.64;99707.56;5051274;28;20237;-82
2023/03/26 02:47:38;;;;;;;3.10;2.20;;;;;;;7.52;87.40;99702.25;5045964;28;20206;-81
2023/03/26 02:50:05;;;;;;;3.53;2.27;;;;;;;7.51;87.94;99703.22;5046306;28;20670;-82
2023/03/26 02:52:32;;;;;;;5.47;2.27;;;;;;;7.51;87.64;99713.81;5050427;28;20229;-81
2023/03/26 02:54:59;;;;;;;4.07;1.87;;;;;;;7.49;87.44;99708.59;5051173;28;20651;-81
2023/03/26 02:57:25;;;;;;;6.10;2.23;;;;;;;7.50;87.77;99701.50;5053602;28;20561;-81
2023/03/26 02:59:52;;;;;;;6.57;2.20;;;;;;;7.49;88.28;99705.97;5053171;28;20240;-81
2023/03/26 03:02:23;;;;;;;5.70;2.23;;;;;;;7.47;87.81;99701.69;5054234;28;20283;-81
2023/03/26 03:04:50;;;;;;;4.70;2.40;;;;;;;7.47;88.31;99705.19;5048253;28;20193;-81
2023/03/26 03:07:17;;;;;;;5.10;2.43;;;;;;;7.48;88.01;99709.56;5050575;28;20225;-81
2023/03/26 03:09:43;;;;;;;3.63;2.60;;;;;;;7.48;87.79;99698.97;5048566;28;20212;-82
2023/03/26 03:12:10;;;;;;;4.80;2.37;;;;;;;7.49;88.66;99703.31;5051529;28;20604;-82
2023/03/26 03:14:36;;;;;;;4.27;2.40;;;;;;;7.50;88.34;99698.84;5048161;28;20204;-82
2023/03/26 03:17:03;;;;;;;6.30;2.57;;;;;;;7.50;87.96;99697.06;5048852;28;20201;-82
2023/03/26 03:19:31;;;;;;;6.70;2.27;;;;;;;7.49;88.36;99697.16;5050240;28;20205;-81
2023/03/26 03:21:57;;;;;;;6.63;3.00;;;;;;;7.47;88.27;99693.75;5050938;28;20228;-81
2023/03/26 03:24:25;;;;;;;4.60;2.50;;;;;;;7.46;88.57;99692.91;5054322;28;20208;-81
2023/03/26 03:26:53;;;;;;;6.33;2.70;;;;;;;7.46;88.87;99707.94;5049757;28;20234;-81
2023/03/26 03:29:20;;;;;;;3.67;2.50;;;;;;;7.46;88.40;99706.16;5050706;28;20205;-81
2023/03/26 03:31:46;;;;;;;4.47;2.70;;;;;;;7.45;89.33;99712.41;5051967;28;20252;-81
2023/03/26 03:34:13;;;;;;;6.50;2.40;;;;;;;7.43;88.99;99714.28;5054282;28;20205;-82
2023/03/26 03:36:41;;;;;;;3.40;2.40;;;;;;;7.43;89.04;99722.25;5048507;28;20646;-81
2023/03/26 03:39:07;;;;;;;4.27;2.60;;;;;;;7.42;89.17;99709.94;5049733;28;20576;-82
2023/03/26 03:41:33;;;;;;;6.10;2.43;;;;;;;7.41;89.14;99702.94;5051704;28;20304;-81
2023/03/26 03:44:00;;;;;;;4.80;2.53;;;;;;;7.41;89.30;99697.66;5050485;28;20229;-81
2023/03/26 03:46:27;;;;;;;6.40;2.30;;;;;;;7.41;88.76;99710.88;5049090;28;20658;-82
2023/03/26 03:48:53;;;;;;;6.00;2.57;;;;;;;7.43;89.08;99705.50;5041050;28;20221;-82
2023/03/26 03:51:20;;;;;;;6.50;2.03;;;;;;;7.42;89.32;99712.59;5040826;28;20230;-81
2023/03/26 03:53:49;;;;;;;6.00;2.40;;;;;;;7.41;89.19;99713.53;5044530;28;20204;-82
2023/03/26 03:56:17;;;;;;;4.43;2.20;;;;;;;7.42;89.60;99711.75;5043053;28;20681;-82
2023/03/26 03:58:46;;;;;;;2.90;1.83;;;;;;;7.42;88.93;99712.59;5044028;28;20202;-81
2023/03/26 04:01:14;;;;;;;6.93;2.60;;;;;;;7.41;89.05;99702.94;5038217;28;20730;-82
2023/03/26 04:03:40;;;;;;;6.13;2.23;;;;;;;7.41;88.95;99702.94;5047794;28;20201;-82
2023/03/26 04:06:09;;;;;;;5.40;2.70;;;;;;;7.40;88.85;99706.53;5045596;28;20232;-81
2023/03/26 04:08:36;;;;;;;7.10;2.60;;;;;;;7.41;89.05;99702.94;5045501;28;20733;-81
2023/03/26 04:11:05;;;;;;;5.57;2.80;;;;;;;7.40;89.41;99701.25;5037400;28;20237;-81
2023/03/26 04:13:31;;;;;;;5.40;2.57;;;;;;;7.41;88.95;99705.59;5041141;28;20640;-81
2023/03/26 04:15:58;;;;;;;5.63;2.90;;;;;;;7.41;88.42;99713.53;5042870;28;20547;-82
2023/03/26 04:18:25;;;;;;;4.57;3.07;;;;;;;7.42;88.93;99709.94;5038044;28;20240;-81
2023/03/26 04:20:53;;;;;;;4.97;3.10;;;;;;;7.42;88.67;99709.94;5040134;28;20256;-82
2023/03/26 04:23:19;;;;;;;4.90;2.53;;;;;;;7.43;89.06;99711.66;5040814;28;20213;-82
2023/03/26 04:25:52;;;;;;;5.80;2.67;;;;;;;7.43;88.66;99710.78;5038970;28;20229;-82
2023/03/26 04:28:29;;;;;;;5.00;2.80;;;;;;;7.43;88.68;99702.84;5044283;28;20202;-82
2023/03/26 04:30:59;;;;;;;6.07;3.03;;;;;;;7.44;89.11;99700.09;5040750;28;20312;-81
2023/03/26 04:33:27;;;;;;;6.20;2.83;;;;;;;7.44;88.28;99697.44;5042506;28;20202;-82
2023/03/26 04:35:55;;;;;;;4.47;2.93;;;;;;;7.44;88.65;99702.75;5039368;28;20807;-82
2023/03/26 04:38:22;;;;;;;6.70;3.47;;;;;;;7.43;88.92;99695.75;5046387;28;20198;-82
2023/03/26 04:40:49;;;;;;;5.27;3.50;;;;;;;7.44;88.23;99700.09;5049239;28;20209;-82
2023/03/26 04:43:17;;;;;;;6.33;3.93;;;;;;;7.44;89.06;99688.66;5048989;28;20213;-82
2023/03/26 04:45:46;;;;;;;11.70;4.50;;;;;;;7.45;88.97;99693.84;5051155;28;20202;-82
2023/03/26 04:48:13;;;;;;;8.10;3.97;;;;;;;7.45;88.83;99693.00;5044791;28;20232;-82
2023/03/26 04:50:41;;;;;;;8.57;4.33;;;;;;;7.45;89.62;99693.00;5044186;28;20263;-82
2023/03/26 04:53:12;;;;;;;8.33;4.87;;;;;;;7.43;89.21;99692.25;5043459;28;20296;-82
2023/03/26 04:55:43;;;;;;;7.83;3.97;;;;;;;7.43;89.71;99693.09;5045889;28;20267;-82
2023/03/26 04:58:12;;;;;;;10.27;5.27;;;;;;;7.42;88.96;99687.91;5049224;28;20189;-82
2023/03/26 05:00:39;;;;;;;10.90;5.37;;;;;;;7.42;89.05;99687.91;5046775;28;20205;-81
2023/03/26 05:03:10;;;;;;;9.17;4.70;;;;;;;7.41;89.36;99680.91;5047793;28;20208;-82
2023/03/26 05:05:37;;;;;;;12.93;5.43;;;;;;;7.42;90.00;99688.75;5046718;28;20205;-82
2023/03/26 05:08:03;;;;;;;7.07;4.30;;;;;;;7.42;89.38;99679.94;5049874;28;20595;-83
2023/03/26 05:10:30;;;;;;;9.37;4.40;;;;;;;7.40;89.39;99682.69;5043553;28;20199;-81
2023/03/26 05:12:56;;;;;;;8.57;4.07;;;;;;;7.40;90.11;99677.41;5041097;28;20221;-82
2023/03/26 05:15:23;;;;;;;9.40;4.87;;;;;;;7.39;90.00;99681.00;5039399;28;20209;-81
2023/03/26 05:17:50;;;;;;;7.47;4.30;;;;;;;7.38;89.50;99674.00;5039432;28;20201;-81
2023/03/26 05:20:21;;;;;;;7.47;4.90;;;;;;;7.36;90.41;99673.25;5039442;28;20201;-82
2023/03/26 05:22:48;;;;;;;6.07;4.00;;;;;;;7.34;89.85;99669.03;5039536;28;20237;-81
2023/03/26 05:25:15;;;;;;;8.27;4.30;;;;;;;7.32;90.09;99674.44;5045079;28;20225;-82
2023/03/26 05:27:42;;;;;;;10.67;4.73;;;;;;;7.30;89.51;99669.22;5043729;28;20236;-83
2023/03/26 05:30:09;;;;;;;7.70;4.70;;;;;;;7.30;89.85;99668.38;5046590;28;20669;-81
2023/03/26 05:32:36;;;;;;;8.33;4.33;;;;;;;7.30;89.73;99676.31;5038230;28;20767;-81
2023/03/26 05:35:04;;;;;;;10.10;4.70;;;;;;;7.30;89.58;99671.03;5040950;28;20213;-81
2023/03/26 05:37:32;;;;;;;6.87;4.67;;;;;;;7.30;89.69;99678.97;5039577;28;20255;-81
2023/03/26 05:39:59;;;;;;;9.10;4.60;;;;;;;7.30;89.97;99678.97;5041714;28;20212;-82
2023/03/26 05:42:26;;;;;;;9.13;4.20;;;;;;;7.29;90.65;99678.13;5041898;28;20241;-82
2023/03/26 05:44:52;;;;;;;8.07;4.67;;;;;;;7.30;90.21;99681.63;5043347;28;20293;-81
2023/03/26 05:47:19;;;;;;;7.57;4.20;;;;;;;7.30;90.07;99671.03;5039681;28;20226;-82
2023/03/26 05:49:46;;;;;;;8.67;4.80;;;;;;;7.31;90.69;99681.53;5035462;28;20210;-81
2023/03/26 05:52:14;;;;;;;8.10;4.63;;;;;;;7.32;90.62;99680.56;5046524;28;20297;-82
2023/03/26 05:54:41;;;;;;;10.23;4.60;;;;;;;7.33;90.66;99678.78;5040032;28;20290;-82
2023/03/26 05:57:08;;;;;;;7.10;4.50;;;;;;;7.34;90.43;99676.97;5045546;28;20206;-81
2023/03/26 05:59:35;;;;;;;11.93;4.53;;;;;;;7.34;90.22;99671.69;5044987;28;20209;-81
2023/03/26 06:02:02;;;;;;;9.90;4.63;;;;;;;7.34;90.89;99664.59;5045010;28;20225;-81
2023/03/26 06:04:28;;;;;;;11.00;5.03;;;;;;;7.34;90.59;99669.88;5043512;28;20336;-81
2023/03/26 06:06:55;;;;;;;9.33;5.03;;;;;;;7.35;90.43;99671.53;5041520;28;20241;-81
2023/03/26 06:09:22;;;;;;;11.70;5.53;;;;;;;7.35;90.92;99663.59;5045557;28;20205;-81
2023/03/26 06:11:50;;;;;;;9.97;4.50;;;;;;;7.36;91.12;99654.72;5049827;28;20771;-82
2023/03/26 06:14:17;;;;;;;10.17;4.87;;;;;;;7.38;91.39;99654.59;5048205;28;20615;-82
2023/03/26 06:16:43;;;;;;;9.93;5.00;;;;;;;7.39;91.17;99654.50;5049441;28;20216;-83
2023/03/26 06:19:10;;;;;;;6.60;4.40;;;;;;;7.41;90.96;99651.75;5045944;28;20608;-82
2023/03/26 06:21:36;;;;;;;7.67;4.97;;;;;;;7.42;91.23;99643.72;5044349;28;20228;-82
2023/03/26 06:24:02;;;;;;;10.53;5.83;;;;;;;7.43;90.88;99648.06;5048823;28;20206;-83
2023/03/26 06:26:29;;;;;;;8.07;5.00;;;;;;;7.46;90.86;99647.88;5046719;28;20202;-82
2023/03/26 06:28:57;;;;;;;9.80;4.70;;;;;;;7.48;91.07;99650.41;5050520;28;20240;-82
2023/03/26 06:31:23;;;;;;;10.73;4.70;;;;;;;7.50;91.33;99652.03;5045844;28;20229;-80
2023/03/26 06:33:50;;;;;;;9.20;5.07;;;;;;;7.53;91.12;99650.94;5054827;28;20578;-82
2023/03/26 06:36:16;;;;;;;9.30;5.37;;;;;;;7.54;91.72;99642.88;5049282;28;20202;-82
2023/03/26 06:38:44;;;;;;;13.40;4.40;;;;;;;7.56;91.17;99650.75;5051033;28;20205;-82
2023/03/26 06:41:10;;;;;;;10.77;5.10;;;;;;;7.58;91.66;99643.53;5047809;28;20225;-82
2023/03/26 06:43:37;;;;;;;8.27;4.43;;;;;;;7.59;92.03;99654.03;5054336;28;20212;-82
2023/03/26 06:46:06;;;;;;;9.23;5.00;;;;;;;7.61;91.42;99649.50;5051940;28;20222;-81
2023/03/26 06:48:32;;;;;;;9.50;4.90;;;;;;;7.62;91.58;99653.84;5045028;28;20229;-81
2023/03/26 06:50:59;;;;;;;9.00;4.33;;;;;;;7.63;92.06;99652.88;5044724;28;20226;-79
2023/03/26 06:53:25;;;;;;;7.27;4.77;;;;;;;7.65;91.64;99648.34;5049632;28;20210;-81
2023/03/26 06:55:52;;;;;;;6.47;4.13;;;;;;;7.68;91.56;99643.78;5045125;28;20202;-82
2023/03/26 06:58:20;;;;;;;6.23;4.30;;;;;;;7.68;90.85;99649.09;5046436;28;20202;-82
2023/03/26 07:00:47;;;;;;;7.87;2.70;;;;;;;7.67;90.71;99648.25;5042337;28;20228;-82
2023/03/26 07:03:17;;;;;;;7.30;3.57;;;;;;;7.64;90.88;99646.63;5048346;28;20205;-82
2023/03/26 07:05:43;;;;;;;7.63;2.90;;;;;;;7.65;90.73;99642.19;5043672;28;20294;-82
2023/03/26 07:08:10;;;;;;;8.40;3.03;;;;;;;7.66;90.33;99633.28;5048003;28;20210;-82
2023/03/26 07:10:36;;;;;;;7.83;2.60;;;;;;;7.66;90.33;99635.94;5041109;28;20208;-82
2023/03/26 07:13:03;;;;;;;5.67;2.13;;;;;;;7.65;89.97;99637.75;5049273;28;20210;-82
2023/03/26 07:15:29;;;;;;;4.50;2.27;;;;;;;7.67;89.31;99640.28;5042400;28;20206;-81
2023/03/26 07:17:56;;;;;;;5.80;1.80;;;;;;;7.69;89.22;99632.25;5046501;28;20233;-81
2023/03/26 07:20:24;;;;;;;5.80;1.73;;;;;;;7.70;89.04;99623.34;5044072;28;20212;-81
2023/03/26 07:22:51;;;;;;;4.17;2.13;;;;;;;7.72;88.63;99629.34;5046212;28;20225;-82
2023/03/26 07:25:19;;;;;;;8.03;2.47;;;;;;;7.75;88.40;99627.34;5045415;28;20201;-82
2023/03/26 07:27:55;;;;;;;6.97;2.23;;;;;;;7.78;87.80;99623.66;5046071;28;20755;-82
2023/03/26 07:30:31;;;;;;;6.93;2.40;;;;;;;7.81;88.63;99624.28;5044914;28;20205;-82
2023/03/26 07:33:01;;;;;;;8.67;2.27;;;;;;;7.84;87.74;99616.13;5043743;28;20217;-82
2023/03/26 07:35:36;;;;;;;6.13;2.00;;;;;;;7.88;87.46;99616.78;5050073;28;20202;-82
2023/03/26 07:38:16;;;;;;;5.23;1.90;;;;;;;7.89;87.69;99615.81;5044594;28;20190;-82
2023/03/26 07:40:52;;;;;;;6.43;2.13;;;;;;;7.93;87.30;99612.84;5044717;28;20210;-82
2023/03/26 07:43:30;;;;;;;5.07;1.80;;;;;;;7.98;87.62;99608.06;5049768;28;20204;-82
2023/03/26 07:45:57;;;;;;;7.50;2.20;;;;;;;8.08;87.43;99615.38;5041247;28;20205;-82
2023/03/26 07:48:26;;;;;;;5.60;2.27;;;;;;;8.13;87.37;99611.47;5044872;28;20225;-83
2023/03/26 07:50:55;;;;;;;9.00;2.40;;;;;;;8.16;86.67;99611.25;5043427;28;20215;-83
2023/03/26 07:53:22;;;;;;;4.13;1.70;;;;;;;8.21;86.27;99603.84;5045819;28;20556;-82
2023/03/26 07:55:53;;;;;;;4.87;2.23;;;;;;;8.24;86.05;99598.28;5046706;28;20201;-82
2023/03/26 07:58:50;;;;;;;4.60;1.83;;;;;;;8.27;85.58;99598.06;5052786;28;20221;-82
2023/03/26 08:01:23;;;;;;;5.23;1.83;;;;;;;8.31;85.02;99604.88;5045169;28;20593;-82
2023/03/26 08:04:03;;;;;;;3.67;2.00;;;;;;;8.34;84.91;99599.38;5044516;28;20209;-82
2023/03/26 08:06:36;;;;;;;7.00;1.80;;;;;;;8.40;84.30;99602.56;5044904;28;20217;-81
2023/03/26 08:09:12;;;;;;;3.53;1.77;;;;;;;8.44;83.27;99598.72;5044148;28;20235;-81
2023/03/26 08:11:47;;;;;;;4.93;1.60;;;;;;;8.49;82.98;99594.78;5048736;28;20229;-81
2023/03/26 08:14:33;;;;;;;3.80;1.77;;;;;;;8.54;83.38;99597.13;5046302;28;20197;-82
2023/03/26 08:17:05;;;;;;;4.80;1.87;;;;;;;8.60;82.95;99589.53;5044949;28;20206;-82
2023/03/26 08:19:48;;;;;;;5.80;1.87;;;;;;;8.71;82.27;99596.75;5052141;28;20643;-82
2023/03/26 08:22:25;;;;;;;6.50;2.07;;;;;;;8.79;82.04;99591.72;5047168;28;20257;-81
2023/03/26 08:25:16;;;;;;;5.17;2.00;;;;;;;8.88;82.07;99592.88;5042815;28;20194;-82
2023/03/26 08:27:51;;;;;;;2.57;1.60;;;;;;;8.92;81.49;99597.84;5047171;28;20217;-81
2023/03/26 08:30:21;;;;;;;3.63;1.37;;;;;;;8.96;80.68;99593.13;5047646;28;20658;-81
2023/03/26 08:32:54;;;;;;;4.23;1.70;;;;;;;8.98;80.28;99593.88;5039015;28;20232;-82
2023/03/26 08:35:20;;;;;;;5.17;1.87;;;;;;;9.00;79.58;99598.13;5045999;28;20194;-81
2023/03/26 08:37:48;;;;;;;5.83;1.57;;;;;;;9.02;79.84;99600.66;5047105;28;20214;-81
2023/03/26 08:40:34;;;;;;;4.37;1.77;;;;;;;9.03;79.63;99597.91;5048633;28;20681;-81
2023/03/26 08:43:36;;;;;;;3.87;1.53;;;;;;;9.03;78.93;99589.94;5046412;28;20234;-81
2023/03/26 08:46:22;;;;;;;4.10;1.27;;;;;;;9.08;78.94;99594.06;5045146;28;20198;-81
2023/03/26 08:49:11;;;;;;;4.33;1.20;;;;;;;9.10;78.42;99593.00;5053734;28;20217;-82
2023/03/26 08:52:18;;;;;;;3.37;1.20;;;;;;;9.10;77.93;99586.84;5048246;28;20230;-82
2023/03/26 08:55:15;;;;;;;3.70;1.10;;;;;;;9.11;77.38;99577.91;5048038;28;20679;-82
2023/03/26 08:58:19;;;;;;;4.90;1.53;;;;;;;9.17;77.44;99585.41;5044413;28;20203;-82
2023/03/26 09:01:07;;;;;;;1.97;1.20;;;;;;;9.20;76.85;99582.53;5047351;28;20211;-82
2023/03/26 09:03:54;;;;;;;2.47;1.37;;;;;;;9.23;76.75;99579.63;5049323;28;20231;-81
2023/03/26 09:06:59;;;;;;;5.20;1.63;;;;;;;9.26;76.85;99582.91;5051042;28;20220;-83
2023/03/26 09:10:05;;;;;;;5.27;1.77;;;;;;;9.36;76.82;99583.91;5046206;28;20221;-82
2023/03/26 09:13:08;;;;;;;4.63;1.90;;;;;;;9.49;76.69;99583.00;5050560;28;20228;-82
2023/03/26 09:16:14;;;;;;;4.87;1.73;;;;;;;9.62;76.68;99584.59;5042524;28;20205;-82
2023/03/26 09:19:09;;;;;;;6.07;1.80;;;;;;;9.73;76.76;99583.78;5005575;28;20206;-82
2023/03/26 09:22:05;;;;;;;4.33;1.73;;;;;;;9.82;76.05;99574.25;5045798;28;20226;-81
2023/03/26 09:25:14;;;;;;;4.30;2.23;;;;;;;9.87;74.57;99577.38;5012570;28;20233;-82
2023/03/26 09:28:01;;;;;;;3.40;2.00;;;;;;;9.94;74.65;99574.16;5031282;28;20624;-82
2023/03/26 09:30:57;;;;;;;3.67;2.07;;;;;;;10.04;74.83;99569.78;5043802;28;20198;-82
2023/03/26 09:33:55;;;;;;;5.50;1.93;;;;;;;10.13;74.15;99573.56;5049052;28;20202;-82
2023/03/26 09:36:39;;;;;;;5.50;2.37;;;;;;;10.17;73.82;99572.34;5045133;28;20201;-82
2023/03/26 09:39:16;;;;;;;5.47;2.30;;;;;;;10.25;74.18;99575.28;5049845;28;20222;-82
2023/03/26 09:41:59;;;;;;;3.87;1.97;;;;;;;10.38;73.82;99575.16;5052025;28;20717;-83
2023/03/26 09:44:44;;;;;;;6.30;2.30;;;;;;;10.49;73.67;99563.66;5053986;28;20217;-82
2023/03/26 09:47:39;;;;;;;5.67;2.63;;;;;;;10.57;72.84;99567.38;5051271;28;20202;-82
2023/03/26 09:50:46;;;;;;;4.63;2.07;;;;;;;10.63;72.29;99569.56;5055401;28;20209;-79
2023/03/26 09:53:32;;;;;;;5.93;2.07;;;;;;;10.65;71.84;99562.28;5000834;28;20235;-83
2023/03/26 09:56:08;;;;;;;6.83;2.53;;;;;;;10.67;71.90;99556.84;5001185;28;20204;-80
2023/03/26 09:59:00;;;;;;;6.53;2.70;;;;;;;10.67;71.43;99557.69;5042181;28;20197;-80
2023/03/26 10:01:33;;;;;;;4.67;2.37;;;;;;;10.70;71.37;99556.59;5055451;28;20231;-80
2023/03/26 10:04:27;;;;;;;5.17;2.50;;;;;;;10.74;71.13;99558.06;5052928;28;20210;-80
2023/03/26 10:07:00;;;;;;;4.30;2.20;;;;;;;10.77;70.68;99547.13;5049987;28;20219;-80
2023/03/26 10:09:47;;;;;;;4.60;2.47;;;;;;;10.79;70.43;99539.84;5048945;28;20238;-80
2023/03/26 10:12:30;;;;;;;4.10;2.90;;;;;;;10.77;69.87;99539.97;5053646;28;20233;-80
2023/03/26 10:15:11;;;;;;;6.47;2.70;;;;;;;10.74;69.58;99534.94;5057329;28;20197;-80
2023/03/26 10:17:51;;;;;;;5.67;2.60;;;;;;;10.79;69.44;99542.53;5053797;28;20213;-80
2023/03/26 10:20:33;;;;;;;7.07;2.90;;;;;;;10.83;69.68;99532.47;5049392;28;20202;-80
2023/03/26 10:23:13;;;;;;;8.57;3.27;;;;;;;10.84;69.36;99536.81;5052212;28;20235;-79
2023/03/26 10:25:57;;;;;;;6.53;2.83;;;;;;;10.92;69.60;99537.91;5059168;28;20201;-80
2023/03/26 10:28:36;;;;;;;3.30;2.13;;;;;;;11.02;69.51;99537.97;5043430;28;20208;-80
2023/03/26 10:31:23;;;;;;;5.47;2.90;;;;;;;11.08;69.44;99530.34;5046928;28;20229;-83
2023/03/26 10:34:02;;;;;;;6.50;2.67;;;;;;;11.09;68.54;99529.34;5043509;28;20238;-82
2023/03/26 10:36:32;;;;;;;4.83;2.60;;;;;;;11.12;68.00;99523.75;5053570;28;20204;-80
2023/03/26 10:39:15;;;;;;;4.03;2.40;;;;;;;11.14;67.77;99518.28;5051440;28;20202;-83
2023/03/26 10:41:51;;;;;;;7.97;3.20;;;;;;;11.17;68.50;99523.38;5048811;28;20220;-80
2023/03/26 10:44:42;;;;;;;4.17;2.67;;;;;;;11.23;68.12;99517.53;5046642;28;20209;-81
2023/03/26 10:47:35;;;;;;;5.17;2.40;;;;;;;11.29;68.47;99510.81;5050707;28;20302;-79
2023/03/26 10:50:29;;;;;;;7.40;2.97;;;;;;;11.35;68.07;99502.31;5050998;28;20200;-80
2023/03/26 10:53:01;;;;;;;5.07;2.73;;;;;;;11.41;67.45;99510.66;5049324;28;20223;-79
2023/03/26 10:55:34;;;;;;;4.40;2.63;;;;;;;11.48;67.44;99513.63;5054099;28;20196;-80
2023/03/26 10:58:05;;;;;;;5.77;3.17;;;;;;;11.56;67.10;99507.66;5053854;28;20204;-80
2023/03/26 11:00:37;;;;;;;5.07;2.30;;;;;;;11.62;67.01;99516.00;5053902;28;20208;-81
2023/03/26 11:03:18;;;;;;;3.27;1.90;;;;;;;11.67;66.66;99511.06;5056427;28;20232;-80
2023/03/26 11:05:51;;;;;;;3.50;1.90;;;;;;;11.70;66.15;99515.31;5054700;28;20196;-81
2023/03/26 11:08:23;;;;;;;8.13;2.90;;;;;;;11.71;65.82;99507.19;5055760;28;20581;-81
2023/03/26 11:10:57;;;;;;;5.30;2.83;;;;;;;11.76;65.48;99505.00;5055512;28;20673;-81
2023/03/26 11:13:38;;;;;;;6.20;2.30;;;;;;;11.80;65.44;99510.94;5051451;28;20201;-84
2023/03/26 11:16:13;;;;;;;4.17;2.23;;;;;;;11.78;64.56;99510.22;5049177;28;20413;-84
2023/03/26 11:18:47;;;;;;;4.97;2.20;;;;;;;11.83;64.84;99508.81;5055726;28;20225;-81
2023/03/26 11:21:22;;;;;;;6.63;2.63;;;;;;;11.90;64.79;99510.97;5056115;28;20222;-80
2023/03/26 11:24:02;;;;;;;5.30;2.00;;;;;;;11.92;64.42;99511.66;5053483;28;20312;-81
2023/03/26 11:26:36;;;;;;;4.43;1.67;;;;;;;11.91;64.21;99507.31;5047553;28;20288;-83
2023/03/26 11:29:21;;;;;;;2.30;1.53;;;;;;;11.92;64.51;99501.84;5052852;28;20308;-80
2023/03/26 11:31:58;;;;;;;3.87;1.93;;;;;;;11.97;64.62;99498.78;5049674;28;20228;-80
2023/03/26 11:34:31;;;;;;;4.20;2.17;;;;;;;11.99;64.80;99502.16;5048445;28;20194;-80
2023/03/26 11:37:01;;;;;;;5.50;2.03;;;;;;;11.97;64.44;99496.97;5048539;28;20227;-80
2023/03/26 11:39:32;;;;;;;5.40;2.53;;;;;;;11.99;64.69;99497.69;5044617;28;20200;-82
2023/03/26 11:42:06;;;;;;;7.23;2.30;;;;;;;12.01;64.71;99501.03;5050122;28;20581;-82
2023/03/26 11:44:38;;;;;;;4.57;1.73;;;;;;;12.03;64.63;99500.91;5049800;28;20616;-80
2023/03/26 11:47:09;;;;;;;4.47;2.17;;;;;;;12.03;64.76;99493.72;5043473;28;20209;-80
2023/03/26 11:49:38;;;;;;;3.80;2.00;;;;;;;12.04;64.40;99499.91;5048638;28;20218;-82
2023/03/26 11:52:06;;;;;;;4.07;2.30;;;;;;;12.02;64.45;99496.53;5048028;28;20259;-81
2023/03/26 11:54:32;;;;;;;4.93;2.40;;;;;;;12.02;64.55;99499.22;5047538;28;20241;-81
2023/03/26 11:57:04;;;;;;;3.87;2.10;;;;;;;12.04;64.71;99491.91;5050463;28;20213;-82
2023/03/26 11:59:35;;;;;;;4.27;2.20;;;;;;;12.03;64.43;99491.06;5057652;28;20196;-81
2023/03/26 12:02:18;;;;;;;6.17;2.67;;;;;;;12.04;64.33;99492.75;5047015;28;20220;-81
2023/03/26 12:04:54;;;;;;;5.63;2.33;;;;;;;12.06;64.21;99497.97;5044139;28;20213;-81